• Join FlightAware (Why Join?)
  • Login
  • US Flag 
07:48PM EDT


 

Airport Tracker/Info


-or-


 

Live Flight TrackerFlight Track Log ✈ FLG4306 ✈ 16-May-2012 ✈ KMSP - KLAN

Flight Track Log - Related Links

Times and Time Zones

All times are in EDT time to prevent confusion due to time zone crossing. See the FLG4306 flight status page for this flight to view local times or setup timezone preferences in your user account.

Time Position Orientation Groundspeed Altitude Reporting Facility
EDT Latitude Longitude Course Direction KTS MPH feet Rate Location/Type
02:13PM 44.9028 -93.2428 351° North 181 208 1,700  Level FAA TRACON SMA TRACON (SMA)
02:14PM 44.9531 -93.2544 33° Northeast 207 238 3,400 1,980 Climbing FAA TRACON SMA TRACON (SMA)
02:14PM 44.9883 -93.2217 63° Northeast 231 266 5,100 2,340 Climbing FAA TRACON SMA TRACON (SMA)
02:15PM 45.0108 -93.1592 65° Northeast 265 305 6,500 2,160 Climbing FAA TRACON SMA TRACON (SMA)
02:16PM 45.0308 -93.0997 64° Northeast 275 316 8,000 2,460 Climbing FAA TRACON SMA TRACON (SMA)
02:16PM 45.0550 -93.0306 64° Northeast 286 329 9,800 1,800 Climbing FAA TRACON SMA TRACON (SMA)
02:18PM 45.1356 -92.7944 64° Northeast 308 354 13,100 1,380 Climbing Minneapolis Center
02:19PM 45.1806 -92.6617 64° Northeast 344 396 14,300 1,260 Climbing Minneapolis Center
02:20PM 45.2306 -92.5167 64° Northeast 384 442 15,800 1,320 Climbing FAA TRACON SMA TRACON (SMA)
02:21PM 45.2669 -92.4108 73° East 389 448 16,800 1,140 Climbing FAA TRACON SMA TRACON (SMA)
02:24PM 45.3500 -92.0150 81° East 415 478 19,700 960 Climbing FAA TRACON SMA TRACON (SMA)
02:26PM 45.3808 -91.7308 78° East 416 479 21,200 840 Climbing Minneapolis Center
02:27PM 45.4053 -91.5675 79° East 421 484 22,100 780 Climbing Minneapolis Center
02:28PM 45.4272 -91.4011 79° East 421 484 22,800 600 Climbing Minneapolis Center
02:29PM 45.4475 -91.2494 82° East 421 484 23,400 660 Climbing Minneapolis Center
02:30PM 45.4647 -91.0769 103° East 431 496 24,200 660 Climbing Minneapolis Center
02:31PM 45.4361 -90.9008 114° Southeast 431 496 24,800 600 Climbing Minneapolis Center
02:32PM 45.3842 -90.7344 113° Southeast 438 504 25,400 540 Climbing Minneapolis Center
02:33PM 45.3342 -90.5656 115° Southeast 451 519 25,900 480 Climbing Minneapolis Center
02:34PM 45.2778 -90.3944 113° Southeast 465 535 26,400 480 Climbing Minneapolis Center
02:35PM 45.2250 -90.2203 115° Southeast 471 542 26,900 480 Climbing Minneapolis Center
02:36PM 45.1700 -90.0497 115° Southeast 471 542 27,400 480 Climbing Minneapolis Center
02:37PM 45.1147 -89.8794 114° Southeast 476 548 27,900 540 Climbing Minneapolis Center
02:38PM 45.0542 -89.6861 114° Southeast 476 548 28,500 480 Climbing Minneapolis Center
02:39PM 45.0053 -89.5336 115° Southeast 476 548 28,900 420 Climbing Minneapolis Center
02:40PM 44.9492 -89.3614 115° Southeast 476 548 29,400 480 Climbing Minneapolis Center
02:41PM 44.8928 -89.1897 115° Southeast 483 556 29,900 480 Climbing Minneapolis Center
02:42PM 44.8339 -89.0153 115° Southeast 483 556 30,400 540 Climbing Minneapolis Center
02:43PM 44.7769 -88.8442 116° Southeast 478 550 31,000 300 Climbing Minneapolis Center
02:44PM 44.7178 -88.6736 115° Southeast 484 557 31,000  Level Minneapolis Center
02:45PM 44.6578 -88.4917 116° Southeast 498 573 31,000  Level Minneapolis Center
02:46PM 44.5981 -88.3189 118° Southeast 498 573 31,000  Level Minneapolis Center
02:47PM 44.5292 -88.1383 123° Southeast 505 581 31,000  Level Minneapolis Center
02:48PM 44.4522 -87.9708 123° Southeast 515 593 31,000  Level Minneapolis Center
02:49PM 44.3706 -87.7983 122° Southeast 524 603 31,000  Level Minneapolis Center
02:50PM 44.2908 -87.6233 125° Southeast 531 611 31,000  Level Minneapolis Center
02:51PM 44.1997 -87.4411 123° Southeast 525 604 31,000  Level Minneapolis Center
02:52PM 44.1175 -87.2672 123° Southeast 530 610 31,000  Level Minneapolis Center
02:54PM 43.9656 -86.9478 124° Southeast 558 642 31,000  Level Chicago Center
02:55PM 43.8828 -86.7753 124° Southeast 553 636 31,000  Level Chicago Center
02:56PM 43.7994 -86.6033 124° Southeast 542 624 31,000 -780 Level Chicago Center
02:57PM 43.7161 -86.4319 124° Southeast 542 624 29,500 -1,680 Descending Chicago Center
02:58PM 43.6347 -86.2636 124° Southeast 542 624 27,700 -2,280 Descending Chicago Center
02:59PM 43.5575 -86.1069 125° Southeast 522 601 25,000 -2,700 Descending Chicago Center
03:00PM 43.4736 -85.9428 125° Southeast 495 570 22,300 -2,700 Descending Chicago Center
03:01PM 43.4025 -85.8008 124° Southeast 466 536 19,700 -2,640 Descending Chicago Center
03:02PM 43.3358 -85.6675 125° Southeast 445 512 17,100 -2,700 Descending Chicago Center
03:03PM 43.2714 -85.5403 125° Southeast 423 487 14,400 -2,100 Descending Chicago Center
03:04PM 43.2222 -85.4436 126° Southeast 407 468 12,900 -1,680 Descending Chicago Center
03:05PM 43.1575 -85.3194 125° Southeast 382 440 11,100 -1,500 Descending Chicago Center
03:06PM 43.1017 -85.2122 125° Southeast 362 417 10,000 -840 Descending Chicago Center
03:07PM 43.0500 -85.1106 125° Southeast 342 394 9,500 -540 Descending Chicago Center
03:08PM 43.0028 -85.0172 125° Southeast 319 367 9,000 -540 Descending Chicago Center